sensor_id;sensor_type;location;lat;lon;timestamp;P1;durP1;ratioP1;P2;durP2;ratioP2
48526;SDS011;34317;51.660;5.824;2022-10-31T00:01:22;18.95;;;12.27;;
48526;SDS011;34317;51.660;5.824;2022-10-31T00:03:51;17.77;;;11.68;;
48526;SDS011;34317;51.660;5.824;2022-10-31T00:06:19;20.20;;;12.55;;
48526;SDS011;34317;51.660;5.824;2022-10-31T00:08:47;18.90;;;12.68;;
48526;SDS011;34317;51.660;5.824;2022-10-31T00:11:18;20.38;;;13.13;;
48526;SDS011;34317;51.660;5.824;2022-10-31T00:13:45;23.27;;;13.75;;
48526;SDS011;34317;51.660;5.824;2022-10-31T00:16:13;23.98;;;13.40;;
48526;SDS011;34317;51.660;5.824;2022-10-31T00:18:41;20.85;;;13.25;;
48526;SDS011;34317;51.660;5.824;2022-10-31T00:21:09;22.25;;;13.23;;
48526;SDS011;34317;51.660;5.824;2022-10-31T00:23:36;21.95;;;13.00;;
48526;SDS011;34317;51.660;5.824;2022-10-31T00:26:03;25.48;;;13.27;;
48526;SDS011;34317;51.660;5.824;2022-10-31T00:28:31;25.45;;;13.27;;
48526;SDS011;34317;51.660;5.824;2022-10-31T00:30:59;21.17;;;12.90;;
48526;SDS011;34317;51.660;5.824;2022-10-31T00:33:32;22.75;;;13.02;;
48526;SDS011;34317;51.660;5.824;2022-10-31T00:36:01;22.17;;;13.05;;
48526;SDS011;34317;51.660;5.824;2022-10-31T00:38:28;23.45;;;14.07;;
48526;SDS011;34317;51.660;5.824;2022-10-31T00:40:55;23.73;;;14.73;;
48526;SDS011;34317;51.660;5.824;2022-10-31T00:43:22;23.02;;;12.95;;
48526;SDS011;34317;51.660;5.824;2022-10-31T00:45:49;22.73;;;13.50;;
48526;SDS011;34317;51.660;5.824;2022-10-31T00:48:16;22.27;;;12.18;;
48526;SDS011;34317;51.660;5.824;2022-10-31T00:50:43;21.95;;;12.98;;
48526;SDS011;34317;51.660;5.824;2022-10-31T00:53:10;21.90;;;12.80;;
48526;SDS011;34317;51.660;5.824;2022-10-31T00:55:37;20.27;;;12.82;;
48526;SDS011;34317;51.660;5.824;2022-10-31T00:58:04;23.05;;;13.25;;
48526;SDS011;34317;51.660;5.824;2022-10-31T01:00:31;18.58;;;12.43;;
48526;SDS011;34317;51.660;5.824;2022-10-31T01:02:58;20.20;;;11.93;;
48526;SDS011;34317;51.660;5.824;2022-10-31T01:05:26;17.85;;;11.00;;
48526;SDS011;34317;51.660;5.824;2022-10-31T01:07:53;16.33;;;11.15;;
48526;SDS011;34317;51.660;5.824;2022-10-31T01:10:20;21.35;;;12.27;;
48526;SDS011;34317;51.660;5.824;2022-10-31T01:12:49;15.07;;;11.45;;
48526;SDS011;34317;51.660;5.824;2022-10-31T01:15:18;17.30;;;11.55;;
48526;SDS011;34317;51.660;5.824;2022-10-31T01:17:47;17.20;;;11.57;;
48526;SDS011;34317;51.660;5.824;2022-10-31T01:20:16;16.05;;;11.32;;
48526;SDS011;34317;51.660;5.824;2022-10-31T01:22:44;19.65;;;11.35;;
48526;SDS011;34317;51.660;5.824;2022-10-31T01:25:11;17.70;;;11.43;;
48526;SDS011;34317;51.660;5.824;2022-10-31T01:27:38;15.05;;;11.25;;
48526;SDS011;34317;51.660;5.824;2022-10-31T01:30:06;17.75;;;11.57;;
48526;SDS011;34317;51.660;5.824;2022-10-31T01:32:34;21.15;;;11.82;;
48526;SDS011;34317;51.660;5.824;2022-10-31T01:35:01;22.70;;;13.40;;
48526;SDS011;34317;51.660;5.824;2022-10-31T01:37:29;19.50;;;12.88;;
48526;SDS011;34317;51.660;5.824;2022-10-31T01:39:57;21.38;;;13.52;;
48526;SDS011;34317;51.660;5.824;2022-10-31T01:42:24;22.63;;;14.43;;
48526;SDS011;34317;51.660;5.824;2022-10-31T01:44:54;23.80;;;14.55;;
48526;SDS011;34317;51.660;5.824;2022-10-31T01:47:26;23.48;;;14.13;;
48526;SDS011;34317;51.660;5.824;2022-10-31T01:49:57;24.35;;;15.02;;
48526;SDS011;34317;51.660;5.824;2022-10-31T01:52:29;24.25;;;14.68;;
48526;SDS011;34317;51.660;5.824;2022-10-31T01:55:00;24.70;;;15.02;;
48526;SDS011;34317;51.660;5.824;2022-10-31T01:57:31;25.88;;;14.95;;
48526;SDS011;34317;51.660;5.824;2022-10-31T02:00:00;19.77;;;13.63;;
48526;SDS011;34317;51.660;5.824;2022-10-31T02:02:39;20.08;;;12.73;;
48526;SDS011;34317;51.660;5.824;2022-10-31T02:05:12;19.67;;;12.68;;
48526;SDS011;34317;51.660;5.824;2022-10-31T02:07:45;19.80;;;12.50;;
48526;SDS011;34317;51.660;5.824;2022-10-31T02:10:26;18.75;;;12.70;;
48526;SDS011;34317;51.660;5.824;2022-10-31T02:12:55;19.33;;;12.43;;
48526;SDS011;34317;51.660;5.824;2022-10-31T02:15:24;22.85;;;12.60;;
48526;SDS011;34317;51.660;5.824;2022-10-31T02:17:52;18.33;;;12.48;;
48526;SDS011;34317;51.660;5.824;2022-10-31T02:20:20;17.33;;;12.45;;
48526;SDS011;34317;51.660;5.824;2022-10-31T02:23:03;24.23;;;13.23;;
48526;SDS011;34317;51.660;5.824;2022-10-31T02:26:13;17.17;;;10.80;;
48526;SDS011;34317;51.660;5.824;2022-10-31T02:31:56;15.63;;;11.25;;
48526;SDS011;34317;51.660;5.824;2022-10-31T02:34:34;15.93;;;11.50;;
48526;SDS011;34317;51.660;5.824;2022-10-31T02:42:32;21.38;;;13.57;;
48526;SDS011;34317;51.660;5.824;2022-10-31T02:47:55;24.67;;;13.98;;
48526;SDS011;34317;51.660;5.824;2022-10-31T02:50:28;18.98;;;11.82;;
48526;SDS011;34317;51.660;5.824;2022-10-31T02:53:00;19.98;;;10.57;;
48526;SDS011;34317;51.660;5.824;2022-10-31T02:58:14;19.88;;;11.25;;
48526;SDS011;34317;51.660;5.824;2022-10-31T03:04:04;20.50;;;12.23;;
48526;SDS011;34317;51.660;5.824;2022-10-31T03:14:48;18.88;;;12.80;;
48526;SDS011;34317;51.660;5.824;2022-10-31T03:17:20;15.57;;;10.95;;
48526;SDS011;34317;51.660;5.824;2022-10-31T03:19:53;12.65;;;9.55;;
48526;SDS011;34317;51.660;5.824;2022-10-31T03:22:22;13.40;;;8.02;;
48526;SDS011;34317;51.660;5.824;2022-10-31T03:24:52;11.85;;;8.52;;
48526;SDS011;34317;51.660;5.824;2022-10-31T03:27:25;12.25;;;8.45;;
48526;SDS011;34317;51.660;5.824;2022-10-31T03:29:56;11.10;;;8.65;;
48526;SDS011;34317;51.660;5.824;2022-10-31T03:32:31;14.20;;;8.05;;
48526;SDS011;34317;51.660;5.824;2022-10-31T03:35:03;12.85;;;8.82;;
48526;SDS011;34317;51.660;5.824;2022-10-31T03:37:34;12.18;;;8.63;;
48526;SDS011;34317;51.660;5.824;2022-10-31T03:40:03;15.15;;;8.82;;
48526;SDS011;34317;51.660;5.824;2022-10-31T03:42:37;15.50;;;8.93;;
48526;SDS011;34317;51.660;5.824;2022-10-31T03:45:12;13.85;;;9.43;;
48526;SDS011;34317;51.660;5.824;2022-10-31T03:50:11;12.25;;;9.00;;
48526;SDS011;34317;51.660;5.824;2022-10-31T03:55:31;11.63;;;8.00;;
48526;SDS011;34317;51.660;5.824;2022-10-31T03:58:13;11.45;;;7.88;;
48526;SDS011;34317;51.660;5.824;2022-10-31T04:00:52;15.70;;;6.75;;
48526;SDS011;34317;51.660;5.824;2022-10-31T04:03:27;8.00;;;6.80;;
48526;SDS011;34317;51.660;5.824;2022-10-31T04:06:00;12.65;;;7.40;;
48526;SDS011;34317;51.660;5.824;2022-10-31T04:08:33;11.65;;;7.57;;
48526;SDS011;34317;51.660;5.824;2022-10-31T04:11:07;12.38;;;7.63;;
48526;SDS011;34317;51.660;5.824;2022-10-31T04:13:39;12.35;;;7.25;;
48526;SDS011;34317;51.660;5.824;2022-10-31T04:16:13;12.13;;;7.60;;
48526;SDS011;34317;51.660;5.824;2022-10-31T04:18:43;11.40;;;8.38;;
48526;SDS011;34317;51.660;5.824;2022-10-31T04:21:10;13.27;;;7.57;;
48526;SDS011;34317;51.660;5.824;2022-10-31T04:23:37;10.93;;;7.63;;
48526;SDS011;34317;51.660;5.824;2022-10-31T04:26:14;12.30;;;7.78;;
48526;SDS011;34317;51.660;5.824;2022-10-31T04:28:43;10.88;;;7.72;;
48526;SDS011;34317;51.660;5.824;2022-10-31T04:31:11;9.18;;;6.60;;
48526;SDS011;34317;51.660;5.824;2022-10-31T04:33:39;9.82;;;7.35;;
48526;SDS011;34317;51.660;5.824;2022-10-31T04:36:07;9.40;;;6.70;;
48526;SDS011;34317;51.660;5.824;2022-10-31T04:38:34;7.28;;;5.95;;
48526;SDS011;34317;51.660;5.824;2022-10-31T04:41:06;9.95;;;6.20;;
48526;SDS011;34317;51.660;5.824;2022-10-31T04:44:08;7.72;;;6.53;;
48526;SDS011;34317;51.660;5.824;2022-10-31T04:46:36;9.10;;;7.45;;
48526;SDS011;34317;51.660;5.824;2022-10-31T04:49:03;11.35;;;7.78;;
48526;SDS011;34317;51.660;5.824;2022-10-31T04:51:31;9.90;;;7.80;;
48526;SDS011;34317;51.660;5.824;2022-10-31T04:53:58;14.23;;;9.40;;
48526;SDS011;34317;51.660;5.824;2022-10-31T04:56:27;14.23;;;9.63;;
48526;SDS011;34317;51.660;5.824;2022-10-31T04:59:00;14.60;;;9.70;;
48526;SDS011;34317;51.660;5.824;2022-10-31T05:01:34;13.40;;;10.38;;
48526;SDS011;34317;51.660;5.824;2022-10-31T05:04:01;15.40;;;11.02;;
48526;SDS011;34317;51.660;5.824;2022-10-31T05:06:31;14.90;;;10.75;;
48526;SDS011;34317;51.660;5.824;2022-10-31T05:08:58;9.98;;;7.25;;
48526;SDS011;34317;51.660;5.824;2022-10-31T05:11:25;8.57;;;6.40;;
48526;SDS011;34317;51.660;5.824;2022-10-31T05:13:55;7.90;;;5.97;;
48526;SDS011;34317;51.660;5.824;2022-10-31T05:16:40;10.02;;;6.95;;
48526;SDS011;34317;51.660;5.824;2022-10-31T05:19:33;11.77;;;6.85;;
48526;SDS011;34317;51.660;5.824;2022-10-31T05:22:18;10.30;;;6.68;;
48526;SDS011;34317;51.660;5.824;2022-10-31T05:24:45;12.30;;;6.45;;
48526;SDS011;34317;51.660;5.824;2022-10-31T05:27:12;9.75;;;7.28;;
48526;SDS011;34317;51.660;5.824;2022-10-31T05:29:40;9.85;;;7.35;;
48526;SDS011;34317;51.660;5.824;2022-10-31T05:32:07;10.77;;;6.68;;
48526;SDS011;34317;51.660;5.824;2022-10-31T05:34:57;15.60;;;7.75;;
48526;SDS011;34317;51.660;5.824;2022-10-31T05:37:46;10.48;;;6.55;;
48526;SDS011;34317;51.660;5.824;2022-10-31T05:40:14;12.10;;;6.95;;
48526;SDS011;34317;51.660;5.824;2022-10-31T05:42:43;9.48;;;7.07;;
48526;SDS011;34317;51.660;5.824;2022-10-31T05:45:13;9.68;;;6.40;;
48526;SDS011;34317;51.660;5.824;2022-10-31T05:47:56;7.35;;;5.72;;
48526;SDS011;34317;51.660;5.824;2022-10-31T05:50:47;6.90;;;5.45;;
48526;SDS011;34317;51.660;5.824;2022-10-31T05:53:15;196.98;;;8.23;;
48526;SDS011;34317;51.660;5.824;2022-10-31T05:55:43;45.28;;;5.75;;
48526;SDS011;34317;51.660;5.824;2022-10-31T05:58:13;7.90;;;5.82;;
48526;SDS011;34317;51.660;5.824;2022-10-31T06:00:48;13.73;;;5.72;;
48526;SDS011;34317;51.660;5.824;2022-10-31T06:03:15;13.73;;;5.95;;
48526;SDS011;34317;51.660;5.824;2022-10-31T06:05:47;6.97;;;5.70;;
48526;SDS011;34317;51.660;5.824;2022-10-31T06:10:49;11.48;;;6.60;;
48526;SDS011;34317;51.660;5.824;2022-10-31T06:13:23;11.05;;;7.28;;
48526;SDS011;34317;51.660;5.824;2022-10-31T06:15:58;86.13;;;8.32;;
48526;SDS011;34317;51.660;5.824;2022-10-31T06:18:32;64.82;;;7.93;;
48526;SDS011;34317;51.660;5.824;2022-10-31T06:21:00;58.10;;;7.13;;
48526;SDS011;34317;51.660;5.824;2022-10-31T06:23:27;8.82;;;5.50;;
48526;SDS011;34317;51.660;5.824;2022-10-31T06:26:14;7.25;;;5.10;;
48526;SDS011;34317;51.660;5.824;2022-10-31T06:28:41;10.23;;;5.35;;
48526;SDS011;34317;51.660;5.824;2022-10-31T06:31:28;10.35;;;5.35;;
48526;SDS011;34317;51.660;5.824;2022-10-31T06:33:56;28.08;;;5.65;;
48526;SDS011;34317;51.660;5.824;2022-10-31T06:36:23;10.90;;;6.18;;
48526;SDS011;34317;51.660;5.824;2022-10-31T06:38:52;16.48;;;5.78;;
48526;SDS011;34317;51.660;5.824;2022-10-31T06:41:22;8.98;;;5.80;;
48526;SDS011;34317;51.660;5.824;2022-10-31T06:43:51;8.30;;;5.43;;
48526;SDS011;34317;51.660;5.824;2022-10-31T06:46:36;6.65;;;4.72;;
48526;SDS011;34317;51.660;5.824;2022-10-31T06:49:22;8.40;;;5.10;;
48526;SDS011;34317;51.660;5.824;2022-10-31T06:52:09;13.35;;;5.47;;
48526;SDS011;34317;51.660;5.824;2022-10-31T06:54:36;7.32;;;5.10;;
48526;SDS011;34317;51.660;5.824;2022-10-31T06:57:03;12.15;;;5.97;;
48526;SDS011;34317;51.660;5.824;2022-10-31T06:59:31;8.90;;;5.68;;
48526;SDS011;34317;51.660;5.824;2022-10-31T07:02:17;8.60;;;5.95;;
48526;SDS011;34317;51.660;5.824;2022-10-31T07:04:44;8.38;;;5.75;;
48526;SDS011;34317;51.660;5.824;2022-10-31T07:07:16;7.88;;;5.57;;
48526;SDS011;34317;51.660;5.824;2022-10-31T07:09:44;7.68;;;5.53;;
48526;SDS011;34317;51.660;5.824;2022-10-31T07:12:15;8.80;;;5.97;;
48526;SDS011;34317;51.660;5.824;2022-10-31T07:14:51;11.15;;;6.10;;
48526;SDS011;34317;51.660;5.824;2022-10-31T07:17:19;8.48;;;6.35;;
48526;SDS011;34317;51.660;5.824;2022-10-31T07:19:57;11.10;;;6.38;;
48526;SDS011;34317;51.660;5.824;2022-10-31T07:22:24;11.60;;;6.95;;
48526;SDS011;34317;51.660;5.824;2022-10-31T07:24:51;18.75;;;7.15;;
48526;SDS011;34317;51.660;5.824;2022-10-31T07:27:44;20.70;;;6.70;;
48526;SDS011;34317;51.660;5.824;2022-10-31T07:30:12;9.70;;;6.07;;
48526;SDS011;34317;51.660;5.824;2022-10-31T07:32:41;12.30;;;7.03;;
48526;SDS011;34317;51.660;5.824;2022-10-31T07:35:13;9.75;;;6.63;;
48526;SDS011;34317;51.660;5.824;2022-10-31T07:37:46;9.63;;;6.63;;
48526;SDS011;34317;51.660;5.824;2022-10-31T07:40:15;11.65;;;6.63;;
48526;SDS011;34317;51.660;5.824;2022-10-31T07:42:44;15.07;;;7.10;;
48526;SDS011;34317;51.660;5.824;2022-10-31T07:45:32;11.20;;;7.32;;
48526;SDS011;34317;51.660;5.824;2022-10-31T07:48:18;13.15;;;7.32;;
48526;SDS011;34317;51.660;5.824;2022-10-31T07:51:04;13.43;;;7.78;;
48526;SDS011;34317;51.660;5.824;2022-10-31T07:54:06;12.13;;;7.20;;
48526;SDS011;34317;51.660;5.824;2022-10-31T07:56:33;14.88;;;8.45;;
48526;SDS011;34317;51.660;5.824;2022-10-31T07:59:00;19.00;;;9.63;;
48526;SDS011;34317;51.660;5.824;2022-10-31T08:01:28;17.65;;;9.15;;
48526;SDS011;34317;51.660;5.824;2022-10-31T08:04:15;18.58;;;9.65;;
48526;SDS011;34317;51.660;5.824;2022-10-31T08:07:00;21.10;;;9.98;;
48526;SDS011;34317;51.660;5.824;2022-10-31T08:09:33;17.05;;;9.60;;
48526;SDS011;34317;51.660;5.824;2022-10-31T08:12:05;19.05;;;9.27;;
48526;SDS011;34317;51.660;5.824;2022-10-31T08:14:34;18.73;;;10.43;;
48526;SDS011;34317;51.660;5.824;2022-10-31T08:17:01;21.67;;;10.02;;
48526;SDS011;34317;51.660;5.824;2022-10-31T08:19:38;23.23;;;11.80;;
48526;SDS011;34317;51.660;5.824;2022-10-31T08:22:08;22.70;;;12.35;;
48526;SDS011;34317;51.660;5.824;2022-10-31T08:24:36;21.83;;;13.07;;
48526;SDS011;34317;51.660;5.824;2022-10-31T08:27:08;28.75;;;14.60;;
48526;SDS011;34317;51.660;5.824;2022-10-31T08:29:38;24.55;;;15.15;;
48526;SDS011;34317;51.660;5.824;2022-10-31T08:32:05;26.88;;;15.15;;
48526;SDS011;34317;51.660;5.824;2022-10-31T08:34:51;26.95;;;15.50;;
48526;SDS011;34317;51.660;5.824;2022-10-31T08:37:40;31.02;;;16.05;;
48526;SDS011;34317;51.660;5.824;2022-10-31T08:40:08;31.50;;;16.65;;
48526;SDS011;34317;51.660;5.824;2022-10-31T08:42:36;26.15;;;17.00;;
48526;SDS011;34317;51.660;5.824;2022-10-31T08:45:03;28.35;;;17.23;;
48526;SDS011;34317;51.660;5.824;2022-10-31T08:47:33;29.75;;;17.17;;
48526;SDS011;34317;51.660;5.824;2022-10-31T08:50:00;33.17;;;19.52;;
48526;SDS011;34317;51.660;5.824;2022-10-31T08:52:28;33.40;;;20.08;;
48526;SDS011;34317;51.660;5.824;2022-10-31T08:55:15;33.78;;;20.42;;
48526;SDS011;34317;51.660;5.824;2022-10-31T08:58:03;36.35;;;21.70;;
48526;SDS011;34317;51.660;5.824;2022-10-31T09:00:43;35.22;;;21.27;;
48526;SDS011;34317;51.660;5.824;2022-10-31T09:03:16;35.70;;;20.85;;
48526;SDS011;34317;51.660;5.824;2022-10-31T09:05:45;37.20;;;21.20;;
48526;SDS011;34317;51.660;5.824;2022-10-31T09:08:12;32.08;;;20.55;;
48526;SDS011;34317;51.660;5.824;2022-10-31T09:10:45;35.15;;;19.20;;
48526;SDS011;34317;51.660;5.824;2022-10-31T09:13:16;33.80;;;21.10;;
48526;SDS011;34317;51.660;5.824;2022-10-31T09:16:03;35.00;;;20.63;;
48526;SDS011;34317;51.660;5.824;2022-10-31T09:18:31;33.22;;;21.23;;
48526;SDS011;34317;51.660;5.824;2022-10-31T09:20:59;32.03;;;19.58;;
48526;SDS011;34317;51.660;5.824;2022-10-31T09:23:29;31.55;;;19.60;;
48526;SDS011;34317;51.660;5.824;2022-10-31T09:25:58;34.95;;;18.88;;
48526;SDS011;34317;51.660;5.824;2022-10-31T09:28:26;35.40;;;19.63;;
48526;SDS011;34317;51.660;5.824;2022-10-31T09:30:58;34.90;;;18.33;;
48526;SDS011;34317;51.660;5.824;2022-10-31T09:34:00;33.45;;;17.70;;
48526;SDS011;34317;51.660;5.824;2022-10-31T09:36:38;32.63;;;17.80;;
48526;SDS011;34317;51.660;5.824;2022-10-31T09:39:14;33.30;;;18.20;;
48526;SDS011;34317;51.660;5.824;2022-10-31T09:42:01;33.05;;;19.30;;
48526;SDS011;34317;51.660;5.824;2022-10-31T09:47:54;35.85;;;18.30;;
48526;SDS011;34317;51.660;5.824;2022-10-31T09:51:07;32.50;;;18.35;;
48526;SDS011;34317;51.660;5.824;2022-10-31T09:56:24;27.13;;;17.67;;
48526;SDS011;34317;51.660;5.824;2022-10-31T09:58:58;28.80;;;16.73;;
48526;SDS011;34317;51.660;5.824;2022-10-31T10:04:12;40.22;;;21.95;;
48526;SDS011;34317;51.660;5.824;2022-10-31T10:06:59;33.28;;;21.10;;
48526;SDS011;34317;51.660;5.824;2022-10-31T10:09:41;36.92;;;20.65;;
48526;SDS011;34317;51.660;5.824;2022-10-31T10:15:17;36.15;;;19.45;;
48526;SDS011;34317;51.660;5.824;2022-10-31T10:18:02;30.95;;;19.75;;
48526;SDS011;34317;51.660;5.824;2022-10-31T10:20:44;34.75;;;19.48;;
48526;SDS011;34317;51.660;5.824;2022-10-31T10:23:51;35.22;;;21.02;;
48526;SDS011;34317;51.660;5.824;2022-10-31T10:26:46;30.85;;;20.15;;
48526;SDS011;34317;51.660;5.824;2022-10-31T10:32:05;36.83;;;21.98;;
48526;SDS011;34317;51.660;5.824;2022-10-31T10:34:45;37.72;;;20.65;;
48526;SDS011;34317;51.660;5.824;2022-10-31T10:37:24;35.25;;;21.73;;
48526;SDS011;34317;51.660;5.824;2022-10-31T10:39:56;34.47;;;18.80;;
48526;SDS011;34317;51.660;5.824;2022-10-31T10:42:41;30.70;;;19.75;;
48526;SDS011;34317;51.660;5.824;2022-10-31T10:45:35;35.50;;;21.20;;
48526;SDS011;34317;51.660;5.824;2022-10-31T10:51:15;32.63;;;20.73;;
48526;SDS011;34317;51.660;5.824;2022-10-31T10:54:13;34.50;;;21.58;;
48526;SDS011;34317;51.660;5.824;2022-10-31T10:59:45;35.65;;;21.35;;
48526;SDS011;34317;51.660;5.824;2022-10-31T11:02:21;33.33;;;20.50;;
48526;SDS011;34317;51.660;5.824;2022-10-31T11:05:00;34.83;;;21.13;;
48526;SDS011;34317;51.660;5.824;2022-10-31T11:07:40;32.22;;;20.10;;
48526;SDS011;34317;51.660;5.824;2022-10-31T11:10:11;29.27;;;15.65;;
48526;SDS011;34317;51.660;5.824;2022-10-31T11:12:43;27.65;;;15.90;;
48526;SDS011;34317;51.660;5.824;2022-10-31T11:15:20;30.63;;;18.98;;
48526;SDS011;34317;51.660;5.824;2022-10-31T11:17:50;32.10;;;19.15;;
48526;SDS011;34317;51.660;5.824;2022-10-31T11:22:47;33.08;;;19.67;;
48526;SDS011;34317;51.660;5.824;2022-10-31T11:25:24;29.58;;;18.88;;
48526;SDS011;34317;51.660;5.824;2022-10-31T11:28:02;36.53;;;18.65;;
48526;SDS011;34317;51.660;5.824;2022-10-31T11:30:35;33.67;;;18.75;;
48526;SDS011;34317;51.660;5.824;2022-10-31T11:33:20;32.15;;;19.27;;
48526;SDS011;34317;51.660;5.824;2022-10-31T11:35:53;29.08;;;18.75;;
48526;SDS011;34317;51.660;5.824;2022-10-31T11:38:26;31.70;;;19.77;;
48526;SDS011;34317;51.660;5.824;2022-10-31T11:41:14;32.85;;;19.60;;
48526;SDS011;34317;51.660;5.824;2022-10-31T11:43:56;34.75;;;18.48;;
48526;SDS011;34317;51.660;5.824;2022-10-31T11:46:39;36.30;;;19.95;;
48526;SDS011;34317;51.660;5.824;2022-10-31T11:49:16;32.50;;;18.85;;
48526;SDS011;34317;51.660;5.824;2022-10-31T11:51:51;34.28;;;19.20;;
48526;SDS011;34317;51.660;5.824;2022-10-31T11:54:22;32.35;;;18.58;;
48526;SDS011;34317;51.660;5.824;2022-10-31T11:56:52;33.78;;;18.10;;
48526;SDS011;34317;51.660;5.824;2022-10-31T11:59:26;27.90;;;17.65;;
48526;SDS011;34317;51.660;5.824;2022-10-31T12:01:56;30.50;;;17.10;;
48526;SDS011;34317;51.660;5.824;2022-10-31T12:07:12;26.38;;;16.77;;
48526;SDS011;34317;51.660;5.824;2022-10-31T12:09:40;33.42;;;17.23;;
48526;SDS011;34317;51.660;5.824;2022-10-31T12:17:48;22.98;;;14.52;;
48526;SDS011;34317;51.660;5.824;2022-10-31T12:23:25;21.67;;;15.15;;
48526;SDS011;34317;51.660;5.824;2022-10-31T12:28:52;25.63;;;14.82;;
48526;SDS011;34317;51.660;5.824;2022-10-31T12:32:03;23.58;;;14.88;;
48526;SDS011;34317;51.660;5.824;2022-10-31T12:46:03;24.55;;;14.45;;
48526;SDS011;34317;51.660;5.824;2022-10-31T12:48:49;21.80;;;14.00;;
48526;SDS011;34317;51.660;5.824;2022-10-31T12:51:32;29.70;;;14.30;;
48526;SDS011;34317;51.660;5.824;2022-10-31T12:57:18;25.20;;;14.50;;
48526;SDS011;34317;51.660;5.824;2022-10-31T13:00:07;26.70;;;14.80;;
48526;SDS011;34317;51.660;5.824;2022-10-31T13:02:51;23.40;;;14.60;;
48526;SDS011;34317;51.660;5.824;2022-10-31T13:05:28;24.00;;;14.50;;
48526;SDS011;34317;51.660;5.824;2022-10-31T13:08:07;23.02;;;14.35;;
48526;SDS011;34317;51.660;5.824;2022-10-31T13:10:40;26.15;;;14.13;;
48526;SDS011;34317;51.660;5.824;2022-10-31T13:16:47;24.38;;;13.98;;
48526;SDS011;34317;51.660;5.824;2022-10-31T13:19:17;22.63;;;14.52;;
48526;SDS011;34317;51.660;5.824;2022-10-31T13:21:51;30.17;;;14.52;;
48526;SDS011;34317;51.660;5.824;2022-10-31T13:24:36;24.38;;;14.30;;
48526;SDS011;34317;51.660;5.824;2022-10-31T13:27:10;23.80;;;14.45;;
48526;SDS011;34317;51.660;5.824;2022-10-31T13:29:52;24.05;;;14.25;;
48526;SDS011;34317;51.660;5.824;2022-10-31T13:32:44;28.90;;;14.60;;
48526;SDS011;34317;51.660;5.824;2022-10-31T13:35:20;24.40;;;15.25;;
48526;SDS011;34317;51.660;5.824;2022-10-31T13:38:15;24.92;;;13.70;;
48526;SDS011;34317;51.660;5.824;2022-10-31T13:40:59;24.07;;;14.87;;
48526;SDS011;34317;51.660;5.824;2022-10-31T13:46:25;25.65;;;14.90;;
48526;SDS011;34317;51.660;5.824;2022-10-31T13:49:00;27.90;;;15.48;;
48526;SDS011;34317;51.660;5.824;2022-10-31T13:51:31;26.83;;;14.50;;
48526;SDS011;34317;51.660;5.824;2022-10-31T13:54:06;29.05;;;15.00;;
48526;SDS011;34317;51.660;5.824;2022-10-31T13:56:50;24.27;;;13.98;;
48526;SDS011;34317;51.660;5.824;2022-10-31T13:59:19;25.38;;;14.95;;
48526;SDS011;34317;51.660;5.824;2022-10-31T14:01:59;26.80;;;15.07;;
48526;SDS011;34317;51.660;5.824;2022-10-31T14:04:38;24.15;;;14.60;;
48526;SDS011;34317;51.660;5.824;2022-10-31T14:07:14;27.47;;;16.03;;
48526;SDS011;34317;51.660;5.824;2022-10-31T14:12:38;33.35;;;16.05;;
48526;SDS011;34317;51.660;5.824;2022-10-31T14:17:47;26.85;;;15.68;;
48526;SDS011;34317;51.660;5.824;2022-10-31T14:22:45;33.33;;;16.77;;
48526;SDS011;34317;51.660;5.824;2022-10-31T14:25:29;31.15;;;16.38;;
48526;SDS011;34317;51.660;5.824;2022-10-31T14:28:03;34.05;;;17.13;;
48526;SDS011;34317;51.660;5.824;2022-10-31T14:30:53;33.45;;;16.63;;
48526;SDS011;34317;51.660;5.824;2022-10-31T14:33:22;30.65;;;17.00;;
48526;SDS011;34317;51.660;5.824;2022-10-31T14:41:57;35.50;;;20.13;;
48526;SDS011;34317;51.660;5.824;2022-10-31T14:47:02;33.05;;;19.70;;
48526;SDS011;34317;51.660;5.824;2022-10-31T14:50:35;34.20;;;20.02;;
48526;SDS011;34317;51.660;5.824;2022-10-31T14:53:02;38.60;;;21.50;;
48526;SDS011;34317;51.660;5.824;2022-10-31T14:55:31;41.30;;;20.98;;
48526;SDS011;34317;51.660;5.824;2022-10-31T14:58:03;35.95;;;21.30;;
48526;SDS011;34317;51.660;5.824;2022-10-31T15:00:32;35.63;;;21.13;;
48526;SDS011;34317;51.660;5.824;2022-10-31T15:03:15;33.33;;;20.77;;
48526;SDS011;34317;51.660;5.824;2022-10-31T15:05:46;29.52;;;18.90;;
48526;SDS011;34317;51.660;5.824;2022-10-31T15:08:33;35.65;;;19.85;;
48526;SDS011;34317;51.660;5.824;2022-10-31T15:11:11;34.55;;;19.52;;
48526;SDS011;34317;51.660;5.824;2022-10-31T15:13:50;37.75;;;20.27;;
48526;SDS011;34317;51.660;5.824;2022-10-31T15:16:22;32.60;;;19.58;;
48526;SDS011;34317;51.660;5.824;2022-10-31T15:19:00;34.70;;;19.80;;
48526;SDS011;34317;51.660;5.824;2022-10-31T15:21:30;37.70;;;20.35;;
48526;SDS011;34317;51.660;5.824;2022-10-31T15:23:58;31.95;;;19.17;;
48526;SDS011;34317;51.660;5.824;2022-10-31T15:26:33;38.67;;;20.00;;
48526;SDS011;34317;51.660;5.824;2022-10-31T15:29:05;32.88;;;19.85;;
48526;SDS011;34317;51.660;5.824;2022-10-31T15:31:38;38.55;;;20.40;;
48526;SDS011;34317;51.660;5.824;2022-10-31T15:34:06;31.20;;;19.92;;
48526;SDS011;34317;51.660;5.824;2022-10-31T15:36:42;28.95;;;18.95;;
48526;SDS011;34317;51.660;5.824;2022-10-31T15:39:10;40.60;;;20.95;;
48526;SDS011;34317;51.660;5.824;2022-10-31T15:41:59;38.20;;;20.63;;
48526;SDS011;34317;51.660;5.824;2022-10-31T15:44:26;36.00;;;20.15;;
48526;SDS011;34317;51.660;5.824;2022-10-31T15:47:03;31.45;;;19.45;;
48526;SDS011;34317;51.660;5.824;2022-10-31T15:49:40;34.38;;;18.80;;
48526;SDS011;34317;51.660;5.824;2022-10-31T15:52:26;34.08;;;18.73;;
48526;SDS011;34317;51.660;5.824;2022-10-31T15:55:00;35.85;;;18.90;;
48526;SDS011;34317;51.660;5.824;2022-10-31T15:57:29;32.67;;;18.33;;
48526;SDS011;34317;51.660;5.824;2022-10-31T15:59:57;31.50;;;19.50;;
48526;SDS011;34317;51.660;5.824;2022-10-31T16:02:26;28.10;;;18.13;;
48526;SDS011;34317;51.660;5.824;2022-10-31T16:04:58;28.77;;;17.25;;
48526;SDS011;34317;51.660;5.824;2022-10-31T16:07:28;31.65;;;18.33;;
48526;SDS011;34317;51.660;5.824;2022-10-31T16:12:25;33.60;;;17.63;;
48526;SDS011;34317;51.660;5.824;2022-10-31T16:15:15;31.27;;;16.88;;
48526;SDS011;34317;51.660;5.824;2022-10-31T16:17:44;34.33;;;18.42;;
48526;SDS011;34317;51.660;5.824;2022-10-31T16:20:18;33.70;;;16.48;;
48526;SDS011;34317;51.660;5.824;2022-10-31T16:22:49;32.78;;;16.83;;
48526;SDS011;34317;51.660;5.824;2022-10-31T16:25:28;29.08;;;16.83;;
48526;SDS011;34317;51.660;5.824;2022-10-31T16:28:04;30.73;;;16.50;;
48526;SDS011;34317;51.660;5.824;2022-10-31T16:30:46;25.03;;;15.30;;
48526;SDS011;34317;51.660;5.824;2022-10-31T16:35:57;28.48;;;15.88;;
48526;SDS011;34317;51.660;5.824;2022-10-31T16:38:41;23.98;;;14.18;;
48526;SDS011;34317;51.660;5.824;2022-10-31T16:41:08;22.52;;;13.73;;
48526;SDS011;34317;51.660;5.824;2022-10-31T16:43:35;25.63;;;13.20;;
48526;SDS011;34317;51.660;5.824;2022-10-31T16:46:02;20.88;;;12.82;;
48526;SDS011;34317;51.660;5.824;2022-10-31T16:48:30;21.33;;;13.07;;
48526;SDS011;34317;51.660;5.824;2022-10-31T16:50:57;24.60;;;12.73;;
48526;SDS011;34317;51.660;5.824;2022-10-31T16:53:24;20.42;;;12.30;;
48526;SDS011;34317;51.660;5.824;2022-10-31T16:55:54;21.27;;;12.57;;
48526;SDS011;34317;51.660;5.824;2022-10-31T16:58:27;24.13;;;12.40;;
48526;SDS011;34317;51.660;5.824;2022-10-31T17:00:59;19.95;;;11.63;;